sensor_id;sensor_type;location;lat;lon;timestamp;P1;durP1;ratioP1;P2;durP2;ratioP2
79375;SDS011;68846;53.150;18.136;2023-04-25T00:00:55;7.40;;;2.80;;
79375;SDS011;68846;53.150;18.136;2023-04-25T00:05:50;3.50;;;2.40;;
79375;SDS011;68846;53.150;18.136;2023-04-25T00:08:17;4.10;;;2.80;;
79375;SDS011;68846;53.150;18.136;2023-04-25T00:10:43;6.40;;;3.50;;
79375;SDS011;68846;53.150;18.136;2023-04-25T00:13:09;4.60;;;3.60;;
79375;SDS011;68846;53.150;18.136;2023-04-25T00:15:37;4.80;;;2.80;;
79375;SDS011;68846;53.150;18.136;2023-04-25T00:18:03;5.80;;;3.50;;
79375;SDS011;68846;53.150;18.136;2023-04-25T00:20:31;4.80;;;3.40;;
79375;SDS011;68846;53.150;18.136;2023-04-25T00:22:57;6.20;;;3.50;;
79375;SDS011;68846;53.150;18.136;2023-04-25T00:25:24;4.30;;;3.70;;
79375;SDS011;68846;53.150;18.136;2023-04-25T00:27:50;4.70;;;3.70;;
79375;SDS011;68846;53.150;18.136;2023-04-25T00:30:16;5.30;;;3.80;;
79375;SDS011;68846;53.150;18.136;2023-04-25T00:32:42;7.40;;;4.40;;
79375;SDS011;68846;53.150;18.136;2023-04-25T00:35:09;5.60;;;3.80;;
79375;SDS011;68846;53.150;18.136;2023-04-25T00:37:35;6.80;;;4.10;;
79375;SDS011;68846;53.150;18.136;2023-04-25T00:40:02;5.30;;;3.60;;
79375;SDS011;68846;53.150;18.136;2023-04-25T00:42:31;5.40;;;3.60;;
79375;SDS011;68846;53.150;18.136;2023-04-25T00:44:58;6.50;;;3.90;;
79375;SDS011;68846;53.150;18.136;2023-04-25T00:47:25;6.10;;;3.30;;
79375;SDS011;68846;53.150;18.136;2023-04-25T00:49:51;6.10;;;3.40;;
79375;SDS011;68846;53.150;18.136;2023-04-25T00:52:19;7.80;;;3.40;;
79375;SDS011;68846;53.150;18.136;2023-04-25T00:54:45;3.60;;;3.20;;
79375;SDS011;68846;53.150;18.136;2023-04-25T00:57:12;3.90;;;3.10;;
79375;SDS011;68846;53.150;18.136;2023-04-25T00:59:39;3.90;;;3.20;;
79375;SDS011;68846;53.150;18.136;2023-04-25T01:02:10;3.80;;;3.30;;
79375;SDS011;68846;53.150;18.136;2023-04-25T01:04:37;3.00;;;2.40;;
79375;SDS011;68846;53.150;18.136;2023-04-25T01:07:04;3.80;;;2.90;;
79375;SDS011;68846;53.150;18.136;2023-04-25T01:09:30;3.70;;;3.00;;
79375;SDS011;68846;53.150;18.136;2023-04-25T01:11:57;3.40;;;3.10;;
79375;SDS011;68846;53.150;18.136;2023-04-25T01:14:24;3.90;;;3.00;;
79375;SDS011;68846;53.150;18.136;2023-04-25T01:16:50;5.40;;;3.30;;
79375;SDS011;68846;53.150;18.136;2023-04-25T01:19:17;5.60;;;3.30;;
79375;SDS011;68846;53.150;18.136;2023-04-25T01:21:45;4.20;;;3.10;;
79375;SDS011;68846;53.150;18.136;2023-04-25T01:24:12;3.70;;;2.70;;
79375;SDS011;68846;53.150;18.136;2023-04-25T01:26:39;4.70;;;2.60;;
79375;SDS011;68846;53.150;18.136;2023-04-25T01:29:10;4.30;;;2.80;;
79375;SDS011;68846;53.150;18.136;2023-04-25T01:34:05;3.40;;;2.40;;
79375;SDS011;68846;53.150;18.136;2023-04-25T01:36:31;4.60;;;2.70;;
79375;SDS011;68846;53.150;18.136;2023-04-25T01:38:57;4.70;;;3.10;;
79375;SDS011;68846;53.150;18.136;2023-04-25T01:41:24;4.40;;;3.10;;
79375;SDS011;68846;53.150;18.136;2023-04-25T01:46:17;4.00;;;2.80;;
79375;SDS011;68846;53.150;18.136;2023-04-25T01:48:43;3.50;;;2.90;;
79375;SDS011;68846;53.150;18.136;2023-04-25T01:51:09;3.90;;;2.80;;
79375;SDS011;68846;53.150;18.136;2023-04-25T01:53:37;3.70;;;2.70;;
79375;SDS011;68846;53.150;18.136;2023-04-25T01:58:33;3.40;;;3.00;;
79375;SDS011;68846;53.150;18.136;2023-04-25T02:04:15;3.80;;;3.20;;
79375;SDS011;68846;53.150;18.136;2023-04-25T02:06:42;3.40;;;2.50;;
79375;SDS011;68846;53.150;18.136;2023-04-25T02:09:08;3.60;;;2.80;;
79375;SDS011;68846;53.150;18.136;2023-04-25T02:11:39;3.30;;;2.70;;
79375;SDS011;68846;53.150;18.136;2023-04-25T02:14:23;4.20;;;2.80;;
79375;SDS011;68846;53.150;18.136;2023-04-25T02:16:57;3.20;;;2.80;;
79375;SDS011;68846;53.150;18.136;2023-04-25T02:21:50;4.50;;;3.20;;
79375;SDS011;68846;53.150;18.136;2023-04-25T02:24:16;3.60;;;2.90;;
79375;SDS011;68846;53.150;18.136;2023-04-25T02:26:42;4.00;;;3.00;;
79375;SDS011;68846;53.150;18.136;2023-04-25T02:29:09;4.00;;;3.20;;
79375;SDS011;68846;53.150;18.136;2023-04-25T02:31:36;3.70;;;3.30;;
79375;SDS011;68846;53.150;18.136;2023-04-25T02:34:02;5.00;;;3.30;;
79375;SDS011;68846;53.150;18.136;2023-04-25T02:36:29;3.90;;;2.90;;
79375;SDS011;68846;53.150;18.136;2023-04-25T02:38:58;4.70;;;3.10;;
79375;SDS011;68846;53.150;18.136;2023-04-25T02:41:24;4.70;;;3.30;;
79375;SDS011;68846;53.150;18.136;2023-04-25T02:43:50;4.00;;;2.80;;
79375;SDS011;68846;53.150;18.136;2023-04-25T02:46:17;6.80;;;3.50;;
79375;SDS011;68846;53.150;18.136;2023-04-25T02:48:46;6.40;;;3.70;;
79375;SDS011;68846;53.150;18.136;2023-04-25T02:51:12;4.60;;;3.30;;
79375;SDS011;68846;53.150;18.136;2023-04-25T02:53:38;4.40;;;2.90;;
79375;SDS011;68846;53.150;18.136;2023-04-25T02:56:05;3.90;;;2.80;;
79375;SDS011;68846;53.150;18.136;2023-04-25T02:58:31;3.80;;;2.70;;
79375;SDS011;68846;53.150;18.136;2023-04-25T03:00:57;3.70;;;2.40;;
79375;SDS011;68846;53.150;18.136;2023-04-25T03:03:23;5.00;;;2.50;;
79375;SDS011;68846;53.150;18.136;2023-04-25T03:08:20;2.30;;;2.00;;
79375;SDS011;68846;53.150;18.136;2023-04-25T03:10:46;3.50;;;2.10;;
79375;SDS011;68846;53.150;18.136;2023-04-25T03:13:14;2.80;;;2.20;;
79375;SDS011;68846;53.150;18.136;2023-04-25T03:15:41;2.90;;;2.20;;
79375;SDS011;68846;53.150;18.136;2023-04-25T03:18:07;4.80;;;2.60;;
79375;SDS011;68846;53.150;18.136;2023-04-25T03:20:34;3.10;;;2.30;;
79375;SDS011;68846;53.150;18.136;2023-04-25T03:23:00;3.70;;;2.40;;
79375;SDS011;68846;53.150;18.136;2023-04-25T03:27:53;2.90;;;1.80;;
79375;SDS011;68846;53.150;18.136;2023-04-25T03:30:19;2.20;;;2.00;;
79375;SDS011;68846;53.150;18.136;2023-04-25T03:32:45;3.70;;;1.70;;
79375;SDS011;68846;53.150;18.136;2023-04-25T03:35:14;2.40;;;1.70;;
79375;SDS011;68846;53.150;18.136;2023-04-25T03:37:41;3.00;;;2.20;;
79375;SDS011;68846;53.150;18.136;2023-04-25T03:40:12;2.60;;;2.00;;
79375;SDS011;68846;53.150;18.136;2023-04-25T03:43:04;2.20;;;1.60;;
79375;SDS011;68846;53.150;18.136;2023-04-25T03:45:32;3.00;;;1.80;;
79375;SDS011;68846;53.150;18.136;2023-04-25T03:47:59;2.50;;;1.70;;
79375;SDS011;68846;53.150;18.136;2023-04-25T03:50:27;2.50;;;2.00;;
79375;SDS011;68846;53.150;18.136;2023-04-25T03:52:53;2.40;;;2.00;;
79375;SDS011;68846;53.150;18.136;2023-04-25T03:55:20;2.70;;;2.00;;
79375;SDS011;68846;53.150;18.136;2023-04-25T03:57:46;4.50;;;1.70;;
79375;SDS011;68846;53.150;18.136;2023-04-25T04:00:12;3.00;;;1.60;;
79375;SDS011;68846;53.150;18.136;2023-04-25T04:02:39;4.20;;;1.50;;
79375;SDS011;68846;53.150;18.136;2023-04-25T04:05:06;2.10;;;1.60;;
79375;SDS011;68846;53.150;18.136;2023-04-25T04:07:35;2.30;;;1.60;;
79375;SDS011;68846;53.150;18.136;2023-04-25T04:10:06;2.80;;;1.40;;
79375;SDS011;68846;53.150;18.136;2023-04-25T04:12:36;1.90;;;1.50;;
79375;SDS011;68846;53.150;18.136;2023-04-25T04:15:03;2.10;;;1.40;;
79375;SDS011;68846;53.150;18.136;2023-04-25T04:17:32;1.60;;;1.50;;
79375;SDS011;68846;53.150;18.136;2023-04-25T04:19:58;2.20;;;1.30;;
79375;SDS011;68846;53.150;18.136;2023-04-25T04:22:25;2.70;;;1.40;;
79375;SDS011;68846;53.150;18.136;2023-04-25T04:24:53;1.80;;;1.50;;
79375;SDS011;68846;53.150;18.136;2023-04-25T04:27:42;2.60;;;1.40;;
79375;SDS011;68846;53.150;18.136;2023-04-25T04:30:29;2.10;;;1.50;;
79375;SDS011;68846;53.150;18.136;2023-04-25T04:32:59;2.10;;;1.40;;
79375;SDS011;68846;53.150;18.136;2023-04-25T04:35:26;1.80;;;1.40;;
79375;SDS011;68846;53.150;18.136;2023-04-25T04:37:53;3.20;;;1.50;;
79375;SDS011;68846;53.150;18.136;2023-04-25T04:40:20;2.50;;;1.30;;
79375;SDS011;68846;53.150;18.136;2023-04-25T04:42:55;2.50;;;1.50;;
79375;SDS011;68846;53.150;18.136;2023-04-25T04:48:31;2.10;;;1.40;;
79375;SDS011;68846;53.150;18.136;2023-04-25T04:51:21;2.10;;;1.30;;
79375;SDS011;68846;53.150;18.136;2023-04-25T04:53:54;3.90;;;1.10;;
79375;SDS011;68846;53.150;18.136;2023-04-25T04:56:42;2.00;;;1.20;;
79375;SDS011;68846;53.150;18.136;2023-04-25T04:59:21;1.70;;;1.20;;
79375;SDS011;68846;53.150;18.136;2023-04-25T05:02:01;2.10;;;1.20;;
79375;SDS011;68846;53.150;18.136;2023-04-25T05:05:02;2.10;;;1.20;;
79375;SDS011;68846;53.150;18.136;2023-04-25T05:07:49;2.10;;;1.70;;
79375;SDS011;68846;53.150;18.136;2023-04-25T05:10:50;1.80;;;1.30;;
79375;SDS011;68846;53.150;18.136;2023-04-25T05:13:31;2.40;;;1.30;;
79375;SDS011;68846;53.150;18.136;2023-04-25T05:16:16;2.10;;;1.20;;
79375;SDS011;68846;53.150;18.136;2023-04-25T05:18:54;2.10;;;1.40;;
79375;SDS011;68846;53.150;18.136;2023-04-25T05:21:32;1.60;;;1.10;;
79375;SDS011;68846;53.150;18.136;2023-04-25T05:24:18;2.40;;;1.40;;
79375;SDS011;68846;53.150;18.136;2023-04-25T05:27:05;2.20;;;1.40;;
79375;SDS011;68846;53.150;18.136;2023-04-25T05:29:53;1.60;;;1.10;;
79375;SDS011;68846;53.150;18.136;2023-04-25T05:32:30;3.60;;;1.60;;
79375;SDS011;68846;53.150;18.136;2023-04-25T05:34:56;2.10;;;1.60;;
79375;SDS011;68846;53.150;18.136;2023-04-25T05:37:26;2.30;;;1.40;;
79375;SDS011;68846;53.150;18.136;2023-04-25T05:39:59;2.10;;;1.80;;
79375;SDS011;68846;53.150;18.136;2023-04-25T05:42:43;2.80;;;1.20;;
79375;SDS011;68846;53.150;18.136;2023-04-25T05:45:20;2.10;;;1.50;;
79375;SDS011;68846;53.150;18.136;2023-04-25T05:48:12;2.00;;;1.40;;
79375;SDS011;68846;53.150;18.136;2023-04-25T05:50:47;2.20;;;1.60;;
79375;SDS011;68846;53.150;18.136;2023-04-25T05:53:43;2.60;;;1.70;;
79375;SDS011;68846;53.150;18.136;2023-04-25T05:56:09;2.60;;;1.50;;
79375;SDS011;68846;53.150;18.136;2023-04-25T05:58:36;2.40;;;1.90;;
79375;SDS011;68846;53.150;18.136;2023-04-25T06:01:02;2.40;;;1.50;;
79375;SDS011;68846;53.150;18.136;2023-04-25T06:03:28;3.20;;;1.70;;
79375;SDS011;68846;53.150;18.136;2023-04-25T06:05:56;3.70;;;2.00;;
79375;SDS011;68846;53.150;18.136;2023-04-25T06:08:22;2.80;;;1.60;;
79375;SDS011;68846;53.150;18.136;2023-04-25T06:10:48;3.30;;;1.80;;
79375;SDS011;68846;53.150;18.136;2023-04-25T06:13:15;3.70;;;2.10;;
79375;SDS011;68846;53.150;18.136;2023-04-25T06:15:42;2.90;;;1.50;;
79375;SDS011;68846;53.150;18.136;2023-04-25T06:20:34;2.30;;;1.70;;
79375;SDS011;68846;53.150;18.136;2023-04-25T06:23:01;2.40;;;1.60;;
79375;SDS011;68846;53.150;18.136;2023-04-25T06:25:37;4.50;;;1.80;;
79375;SDS011;68846;53.150;18.136;2023-04-25T06:28:04;2.30;;;1.80;;
79375;SDS011;68846;53.150;18.136;2023-04-25T06:30:30;2.80;;;1.90;;
79375;SDS011;68846;53.150;18.136;2023-04-25T06:33:01;5.50;;;1.80;;
79375;SDS011;68846;53.150;18.136;2023-04-25T06:37:54;4.50;;;2.00;;
79375;SDS011;68846;53.150;18.136;2023-04-25T06:40:21;2.10;;;1.70;;
79375;SDS011;68846;53.150;18.136;2023-04-25T06:42:47;4.90;;;2.10;;
79375;SDS011;68846;53.150;18.136;2023-04-25T06:45:36;2.30;;;1.70;;
79375;SDS011;68846;53.150;18.136;2023-04-25T06:48:03;3.80;;;2.10;;
79375;SDS011;68846;53.150;18.136;2023-04-25T06:52:56;2.80;;;2.10;;
79375;SDS011;68846;53.150;18.136;2023-04-25T06:55:22;3.00;;;2.10;;
79375;SDS011;68846;53.150;18.136;2023-04-25T06:58:07;4.90;;;2.50;;
79375;SDS011;68846;53.150;18.136;2023-04-25T07:00:52;3.70;;;2.30;;
79375;SDS011;68846;53.150;18.136;2023-04-25T07:03:20;3.80;;;2.40;;
79375;SDS011;68846;53.150;18.136;2023-04-25T07:05:46;4.70;;;2.20;;
79375;SDS011;68846;53.150;18.136;2023-04-25T07:08:12;3.60;;;1.90;;
79375;SDS011;68846;53.150;18.136;2023-04-25T07:10:39;3.70;;;2.20;;
79375;SDS011;68846;53.150;18.136;2023-04-25T07:13:06;4.20;;;2.30;;
79375;SDS011;68846;53.150;18.136;2023-04-25T07:15:32;2.90;;;2.30;;
79375;SDS011;68846;53.150;18.136;2023-04-25T07:18:00;4.90;;;2.30;;
79375;SDS011;68846;53.150;18.136;2023-04-25T07:20:26;3.20;;;2.10;;
79375;SDS011;68846;53.150;18.136;2023-04-25T07:22:53;3.40;;;2.00;;
79375;SDS011;68846;53.150;18.136;2023-04-25T07:25:19;3.60;;;2.10;;
79375;SDS011;68846;53.150;18.136;2023-04-25T07:27:46;4.20;;;2.20;;
79375;SDS011;68846;53.150;18.136;2023-04-25T07:30:16;3.80;;;2.10;;
79375;SDS011;68846;53.150;18.136;2023-04-25T07:32:42;3.20;;;2.30;;
79375;SDS011;68846;53.150;18.136;2023-04-25T07:35:09;2.90;;;2.30;;
79375;SDS011;68846;53.150;18.136;2023-04-25T07:37:35;4.00;;;2.20;;
79375;SDS011;68846;53.150;18.136;2023-04-25T07:40:13;3.60;;;2.10;;
79375;SDS011;68846;53.150;18.136;2023-04-25T07:42:45;2.60;;;2.30;;
79375;SDS011;68846;53.150;18.136;2023-04-25T07:47:38;4.30;;;2.00;;
79375;SDS011;68846;53.150;18.136;2023-04-25T07:50:06;3.30;;;2.10;;
79375;SDS011;68846;53.150;18.136;2023-04-25T07:52:33;3.50;;;2.20;;
79375;SDS011;68846;53.150;18.136;2023-04-25T07:55:07;2.80;;;2.10;;
79375;SDS011;68846;53.150;18.136;2023-04-25T07:57:42;3.60;;;1.90;;
79375;SDS011;68846;53.150;18.136;2023-04-25T08:00:09;2.90;;;2.10;;
79375;SDS011;68846;53.150;18.136;2023-04-25T08:02:40;2.60;;;1.80;;
79375;SDS011;68846;53.150;18.136;2023-04-25T08:05:08;3.10;;;1.80;;
79375;SDS011;68846;53.150;18.136;2023-04-25T08:07:38;2.30;;;1.50;;
79375;SDS011;68846;53.150;18.136;2023-04-25T08:10:05;2.60;;;1.70;;
79375;SDS011;68846;53.150;18.136;2023-04-25T08:12:32;2.60;;;2.10;;
79375;SDS011;68846;53.150;18.136;2023-04-25T08:14:59;2.60;;;1.60;;
79375;SDS011;68846;53.150;18.136;2023-04-25T08:17:28;3.30;;;2.20;;
79375;SDS011;68846;53.150;18.136;2023-04-25T08:19:55;4.70;;;2.10;;
79375;SDS011;68846;53.150;18.136;2023-04-25T08:22:25;2.70;;;2.10;;
79375;SDS011;68846;53.150;18.136;2023-04-25T08:25:08;2.50;;;2.00;;
79375;SDS011;68846;53.150;18.136;2023-04-25T08:30:01;3.20;;;2.10;;
79375;SDS011;68846;53.150;18.136;2023-04-25T08:32:30;2.60;;;2.10;;
79375;SDS011;68846;53.150;18.136;2023-04-25T08:35:22;3.10;;;2.50;;
79375;SDS011;68846;53.150;18.136;2023-04-25T08:37:49;5.40;;;2.50;;
79375;SDS011;68846;53.150;18.136;2023-04-25T08:40:17;6.60;;;2.60;;
79375;SDS011;68846;53.150;18.136;2023-04-25T08:42:58;3.80;;;2.60;;
79375;SDS011;68846;53.150;18.136;2023-04-25T08:45:29;4.30;;;2.70;;
79375;SDS011;68846;53.150;18.136;2023-04-25T08:47:58;2.50;;;2.10;;
79375;SDS011;68846;53.150;18.136;2023-04-25T08:50:24;4.20;;;2.40;;
79375;SDS011;68846;53.150;18.136;2023-04-25T08:52:52;2.90;;;1.90;;
79375;SDS011;68846;53.150;18.136;2023-04-25T08:55:21;3.80;;;2.30;;
79375;SDS011;68846;53.150;18.136;2023-04-25T08:57:49;3.80;;;2.80;;
79375;SDS011;68846;53.150;18.136;2023-04-25T09:00:16;4.90;;;2.40;;
79375;SDS011;68846;53.150;18.136;2023-04-25T09:02:44;3.60;;;2.30;;
79375;SDS011;68846;53.150;18.136;2023-04-25T09:05:13;5.50;;;2.70;;
79375;SDS011;68846;53.150;18.136;2023-04-25T09:07:41;3.20;;;2.60;;
79375;SDS011;68846;53.150;18.136;2023-04-25T09:10:08;4.90;;;2.50;;
79375;SDS011;68846;53.150;18.136;2023-04-25T09:12:36;5.50;;;3.20;;
79375;SDS011;68846;53.150;18.136;2023-04-25T09:15:05;4.10;;;2.50;;
79375;SDS011;68846;53.150;18.136;2023-04-25T09:17:54;3.90;;;2.70;;
79375;SDS011;68846;53.150;18.136;2023-04-25T09:20:22;2.80;;;2.30;;
79375;SDS011;68846;53.150;18.136;2023-04-25T09:22:48;3.50;;;2.50;;
79375;SDS011;68846;53.150;18.136;2023-04-25T09:25:14;7.60;;;3.00;;
79375;SDS011;68846;53.150;18.136;2023-04-25T09:28:06;3.90;;;2.50;;
79375;SDS011;68846;53.150;18.136;2023-04-25T09:30:57;5.30;;;3.00;;
79375;SDS011;68846;53.150;18.136;2023-04-25T09:33:33;4.80;;;2.60;;
79375;SDS011;68846;53.150;18.136;2023-04-25T09:36:04;3.80;;;2.70;;
79375;SDS011;68846;53.150;18.136;2023-04-25T09:39:03;3.00;;;2.60;;
79375;SDS011;68846;53.150;18.136;2023-04-25T09:41:44;4.70;;;2.80;;
79375;SDS011;68846;53.150;18.136;2023-04-25T09:44:14;3.70;;;2.80;;
79375;SDS011;68846;53.150;18.136;2023-04-25T09:46:41;4.10;;;2.70;;
79375;SDS011;68846;53.150;18.136;2023-04-25T09:49:13;4.60;;;2.60;;
79375;SDS011;68846;53.150;18.136;2023-04-25T09:51:58;3.80;;;2.40;;
79375;SDS011;68846;53.150;18.136;2023-04-25T09:54:33;4.50;;;2.20;;
79375;SDS011;68846;53.150;18.136;2023-04-25T09:57:17;6.80;;;2.70;;
79375;SDS011;68846;53.150;18.136;2023-04-25T09:59:52;3.60;;;2.60;;
79375;SDS011;68846;53.150;18.136;2023-04-25T10:02:20;2.60;;;1.90;;
79375;SDS011;68846;53.150;18.136;2023-04-25T10:04:55;3.40;;;2.40;;
79375;SDS011;68846;53.150;18.136;2023-04-25T10:07:30;2.60;;;2.00;;
79375;SDS011;68846;53.150;18.136;2023-04-25T10:09:58;4.50;;;2.20;;
79375;SDS011;68846;53.150;18.136;2023-04-25T10:12:29;7.80;;;2.00;;
79375;SDS011;68846;53.150;18.136;2023-04-25T10:14:59;2.80;;;1.90;;
79375;SDS011;68846;53.150;18.136;2023-04-25T10:17:27;3.00;;;2.00;;
79375;SDS011;68846;53.150;18.136;2023-04-25T10:19:56;2.80;;;2.20;;
79375;SDS011;68846;53.150;18.136;2023-04-25T10:24:56;2.50;;;2.10;;
79375;SDS011;68846;53.150;18.136;2023-04-25T10:27:23;3.60;;;2.20;;
79375;SDS011;68846;53.150;18.136;2023-04-25T10:30:11;5.30;;;2.10;;
79375;SDS011;68846;53.150;18.136;2023-04-25T10:32:43;3.10;;;2.20;;
79375;SDS011;68846;53.150;18.136;2023-04-25T10:35:12;3.00;;;2.30;;
79375;SDS011;68846;53.150;18.136;2023-04-25T10:37:59;3.10;;;2.30;;
79375;SDS011;68846;53.150;18.136;2023-04-25T10:40:35;3.80;;;2.20;;
79375;SDS011;68846;53.150;18.136;2023-04-25T10:45:59;5.00;;;2.60;;
79375;SDS011;68846;53.150;18.136;2023-04-25T10:48:29;3.50;;;2.40;;
79375;SDS011;68846;53.150;18.136;2023-04-25T10:51:15;2.80;;;2.20;;
79375;SDS011;68846;53.150;18.136;2023-04-25T10:53:58;3.40;;;2.60;;
79375;SDS011;68846;53.150;18.136;2023-04-25T10:56:32;4.10;;;2.00;;
79375;SDS011;68846;53.150;18.136;2023-04-25T10:59:10;3.20;;;2.20;;
79375;SDS011;68846;53.150;18.136;2023-04-25T11:09:28;3.90;;;2.10;;
79375;SDS011;68846;53.150;18.136;2023-04-25T11:11:56;3.30;;;2.10;;
79375;SDS011;68846;53.150;18.136;2023-04-25T11:14:24;2.60;;;2.30;;
79375;SDS011;68846;53.150;18.136;2023-04-25T11:16:54;2.60;;;2.20;;
79375;SDS011;68846;53.150;18.136;2023-04-25T11:19:24;4.40;;;2.30;;
79375;SDS011;68846;53.150;18.136;2023-04-25T11:21:54;3.10;;;2.00;;
79375;SDS011;68846;53.150;18.136;2023-04-25T11:24:31;4.90;;;2.40;;
79375;SDS011;68846;53.150;18.136;2023-04-25T11:27:00;3.90;;;2.30;;
79375;SDS011;68846;53.150;18.136;2023-04-25T11:29:30;4.40;;;2.40;;
79375;SDS011;68846;53.150;18.136;2023-04-25T11:31:59;3.90;;;2.80;;
79375;SDS011;68846;53.150;18.136;2023-04-25T11:34:27;4.00;;;2.80;;
79375;SDS011;68846;53.150;18.136;2023-04-25T11:36:56;5.90;;;2.80;;
79375;SDS011;68846;53.150;18.136;2023-04-25T11:39:23;5.20;;;2.70;;
79375;SDS011;68846;53.150;18.136;2023-04-25T11:41:51;3.60;;;2.50;;
79375;SDS011;68846;53.150;18.136;2023-04-25T11:46:44;4.00;;;2.90;;
79375;SDS011;68846;53.150;18.136;2023-04-25T11:49:11;2.70;;;2.20;;
79375;SDS011;68846;53.150;18.136;2023-04-25T11:51:44;3.30;;;2.40;;
79375;SDS011;68846;53.150;18.136;2023-04-25T11:54:12;3.50;;;2.10;;
79375;SDS011;68846;53.150;18.136;2023-04-25T11:56:43;3.10;;;2.50;;
79375;SDS011;68846;53.150;18.136;2023-04-25T11:59:10;2.90;;;2.10;;
79375;SDS011;68846;53.150;18.136;2023-04-25T12:01:40;3.50;;;2.50;;
79375;SDS011;68846;53.150;18.136;2023-04-25T12:04:18;4.00;;;2.40;;
79375;SDS011;68846;53.150;18.136;2023-04-25T12:06:49;4.10;;;2.50;;
79375;SDS011;68846;53.150;18.136;2023-04-25T12:09:18;3.00;;;2.60;;
79375;SDS011;68846;53.150;18.136;2023-04-25T12:11:47;4.20;;;2.40;;
79375;SDS011;68846;53.150;18.136;2023-04-25T12:14:36;4.60;;;2.30;;
79375;SDS011;68846;53.150;18.136;2023-04-25T12:17:03;3.60;;;2.20;;
79375;SDS011;68846;53.150;18.136;2023-04-25T12:19:37;3.80;;;2.50;;
79375;SDS011;68846;53.150;18.136;2023-04-25T12:22:23;3.00;;;2.20;;
79375;SDS011;68846;53.150;18.136;2023-04-25T12:24:50;5.40;;;2.40;;
79375;SDS011;68846;53.150;18.136;2023-04-25T12:27:19;5.50;;;2.40;;
79375;SDS011;68846;53.150;18.136;2023-04-25T12:29:52;2.10;;;1.80;;
79375;SDS011;68846;53.150;18.136;2023-04-25T12:32:19;3.30;;;2.00;;
79375;SDS011;68846;53.150;18.136;2023-04-25T12:34:46;2.60;;;1.60;;
79375;SDS011;68846;53.150;18.136;2023-04-25T12:39:38;3.50;;;2.00;;
79375;SDS011;68846;53.150;18.136;2023-04-25T12:42:05;2.30;;;1.90;;
79375;SDS011;68846;53.150;18.136;2023-04-25T12:44:33;3.00;;;1.90;;
79375;SDS011;68846;53.150;18.136;2023-04-25T12:47:00;3.80;;;2.20;;
79375;SDS011;68846;53.150;18.136;2023-04-25T12:49:28;3.70;;;2.40;;
79375;SDS011;68846;53.150;18.136;2023-04-25T12:51:55;2.80;;;1.80;;
79375;SDS011;68846;53.150;18.136;2023-04-25T12:54:21;3.70;;;2.10;;
79375;SDS011;68846;53.150;18.136;2023-04-25T12:56:47;4.70;;;2.30;;
79375;SDS011;68846;53.150;18.136;2023-04-25T12:59:13;3.60;;;2.20;;
79375;SDS011;68846;53.150;18.136;2023-04-25T13:01:39;4.00;;;2.30;;
79375;SDS011;68846;53.150;18.136;2023-04-25T13:04:05;3.70;;;2.10;;
79375;SDS011;68846;53.150;18.136;2023-04-25T13:06:32;4.80;;;2.20;;
79375;SDS011;68846;53.150;18.136;2023-04-25T13:08:58;3.00;;;2.30;;
79375;SDS011;68846;53.150;18.136;2023-04-25T13:11:24;3.30;;;2.50;;
79375;SDS011;68846;53.150;18.136;2023-04-25T13:13:51;3.00;;;2.00;;
79375;SDS011;68846;53.150;18.136;2023-04-25T13:16:17;5.10;;;1.90;;
79375;SDS011;68846;53.150;18.136;2023-04-25T13:18:46;2.70;;;1.80;;
79375;SDS011;68846;53.150;18.136;2023-04-25T13:21:12;3.80;;;2.50;;
79375;SDS011;68846;53.150;18.136;2023-04-25T13:23:39;4.00;;;2.20;;
79375;SDS011;68846;53.150;18.136;2023-04-25T13:26:08;4.00;;;2.10;;
79375;SDS011;68846;53.150;18.136;2023-04-25T13:28:34;3.00;;;2.10;;
79375;SDS011;68846;53.150;18.136;2023-04-25T13:31:00;4.40;;;2.70;;
79375;SDS011;68846;53.150;18.136;2023-04-25T13:33:27;3.20;;;2.50;;
79375;SDS011;68846;53.150;18.136;2023-04-25T13:35:53;4.50;;;2.40;;
79375;SDS011;68846;53.150;18.136;2023-04-25T13:38:21;4.20;;;2.60;;
79375;SDS011;68846;53.150;18.136;2023-04-25T13:40:48;3.50;;;2.30;;
79375;SDS011;68846;53.150;18.136;2023-04-25T13:43:15;1.90;;;1.40;;
79375;SDS011;68846;53.150;18.136;2023-04-25T13:48:08;2.70;;;1.40;;
79375;SDS011;68846;53.150;18.136;2023-04-25T13:50:34;2.90;;;1.50;;
79375;SDS011;68846;53.150;18.136;2023-04-25T13:53:01;2.50;;;1.70;;
79375;SDS011;68846;53.150;18.136;2023-04-25T13:55:27;5.40;;;2.40;;
79375;SDS011;68846;53.150;18.136;2023-04-25T13:57:53;2.90;;;2.20;;
79375;SDS011;68846;53.150;18.136;2023-04-25T14:00:19;3.90;;;2.60;;
79375;SDS011;68846;53.150;18.136;2023-04-25T14:02:46;2.80;;;2.30;;
79375;SDS011;68846;53.150;18.136;2023-04-25T14:05:13;3.10;;;2.30;;
79375;SDS011;68846;53.150;18.136;2023-04-25T14:07:39;3.60;;;3.00;;
79375;SDS011;68846;53.150;18.136;2023-04-25T14:10:06;3.50;;;2.50;;
79375;SDS011;68846;53.150;18.136;2023-04-25T14:12:32;3.60;;;2.50;;
79375;SDS011;68846;53.150;18.136;2023-04-25T14:14:59;4.70;;;2.70;;
79375;SDS011;68846;53.150;18.136;2023-04-25T14:17:26;6.00;;;2.80;;
79375;SDS011;68846;53.150;18.136;2023-04-25T14:19:52;4.40;;;3.10;;
79375;SDS011;68846;53.150;18.136;2023-04-25T14:22:18;3.00;;;2.40;;
79375;SDS011;68846;53.150;18.136;2023-04-25T14:24:45;4.00;;;2.50;;
79375;SDS011;68846;53.150;18.136;2023-04-25T14:27:11;6.80;;;3.30;;
79375;SDS011;68846;53.150;18.136;2023-04-25T14:29:37;3.30;;;2.30;;
79375;SDS011;68846;53.150;18.136;2023-04-25T14:32:03;3.40;;;2.50;;
79375;SDS011;68846;53.150;18.136;2023-04-25T14:34:31;4.40;;;2.00;;
79375;SDS011;68846;53.150;18.136;2023-04-25T14:36:57;2.10;;;1.70;;
79375;SDS011;68846;53.150;18.136;2023-04-25T14:39:23;2.10;;;1.10;;
79375;SDS011;68846;53.150;18.136;2023-04-25T14:41:50;1.50;;;0.90;;
79375;SDS011;68846;53.150;18.136;2023-04-25T14:46:43;1.20;;;1.00;;
79375;SDS011;68846;53.150;18.136;2023-04-25T14:49:09;1.00;;;0.90;;
79375;SDS011;68846;53.150;18.136;2023-04-25T14:51:35;1.80;;;0.90;;
79375;SDS011;68846;53.150;18.136;2023-04-25T14:54:01;2.20;;;1.10;;
79375;SDS011;68846;53.150;18.136;2023-04-25T14:56:28;1.50;;;0.90;;
79375;SDS011;68846;53.150;18.136;2023-04-25T14:58:55;1.70;;;1.40;;
79375;SDS011;68846;53.150;18.136;2023-04-25T15:01:21;2.70;;;1.00;;
79375;SDS011;68846;53.150;18.136;2023-04-25T15:03:47;1.40;;;1.10;;
79375;SDS011;68846;53.150;18.136;2023-04-25T15:06:14;2.00;;;1.20;;
79375;SDS011;68846;53.150;18.136;2023-04-25T15:08:40;2.40;;;1.00;;
79375;SDS011;68846;53.150;18.136;2023-04-25T15:11:06;2.50;;;1.60;;
79375;SDS011;68846;53.150;18.136;2023-04-25T15:13:32;2.30;;;1.70;;
79375;SDS011;68846;53.150;18.136;2023-04-25T15:16:00;2.10;;;1.50;;
79375;SDS011;68846;53.150;18.136;2023-04-25T15:18:26;3.20;;;1.60;;
79375;SDS011;68846;53.150;18.136;2023-04-25T15:20:52;3.30;;;1.60;;
79375;SDS011;68846;53.150;18.136;2023-04-25T15:23:19;3.00;;;1.60;;
79375;SDS011;68846;53.150;18.136;2023-04-25T15:25:47;3.00;;;1.70;;
79375;SDS011;68846;53.150;18.136;2023-04-25T15:28:13;2.90;;;1.70;;
79375;SDS011;68846;53.150;18.136;2023-04-25T15:30:42;3.40;;;1.80;;
79375;SDS011;68846;53.150;18.136;2023-04-25T15:33:08;3.90;;;1.60;;
79375;SDS011;68846;53.150;18.136;2023-04-25T15:35:35;3.00;;;1.70;;
79375;SDS011;68846;53.150;18.136;2023-04-25T15:38:01;3.40;;;1.70;;
79375;SDS011;68846;53.150;18.136;2023-04-25T15:40:27;3.50;;;1.80;;
79375;SDS011;68846;53.150;18.136;2023-04-25T15:42:53;3.70;;;1.60;;
79375;SDS011;68846;53.150;18.136;2023-04-25T15:45:21;2.80;;;1.80;;
79375;SDS011;68846;53.150;18.136;2023-04-25T15:47:54;4.20;;;1.90;;